sensor_id;sensor_type;location;lat;lon;timestamp;temperature;humidity
21666;DHT22;10994;45.486;9.190;2022-12-31T00:01:22;9.70;99.90
21666;DHT22;10994;45.486;9.190;2022-12-31T00:03:48;9.70;99.90
21666;DHT22;10994;45.486;9.190;2022-12-31T00:06:26;9.80;99.90
21666;DHT22;10994;45.486;9.190;2022-12-31T00:08:53;9.80;99.90
21666;DHT22;10994;45.486;9.190;2022-12-31T00:11:21;9.80;99.90
21666;DHT22;10994;45.486;9.190;2022-12-31T00:13:47;9.70;99.90
21666;DHT22;10994;45.486;9.190;2022-12-31T00:16:16;9.70;99.90
21666;DHT22;10994;45.486;9.190;2022-12-31T00:18:43;9.70;99.90
21666;DHT22;10994;45.486;9.190;2022-12-31T00:21:09;9.60;99.90
21666;DHT22;10994;45.486;9.190;2022-12-31T00:23:36;9.60;99.90
21666;DHT22;10994;45.486;9.190;2022-12-31T00:26:10;9.60;99.90
21666;DHT22;10994;45.486;9.190;2022-12-31T00:28:38;9.60;99.90
21666;DHT22;10994;45.486;9.190;2022-12-31T00:31:12;9.50;99.90
21666;DHT22;10994;45.486;9.190;2022-12-31T00:33:38;9.50;99.90
21666;DHT22;10994;45.486;9.190;2022-12-31T00:36:12;9.50;99.90
21666;DHT22;10994;45.486;9.190;2022-12-31T00:38:39;9.50;99.90
21666;DHT22;10994;45.486;9.190;2022-12-31T00:41:06;9.60;99.90
21666;DHT22;10994;45.486;9.190;2022-12-31T00:43:33;9.60;99.90
21666;DHT22;10994;45.486;9.190;2022-12-31T00:45:59;9.70;99.90
21666;DHT22;10994;45.486;9.190;2022-12-31T00:48:24;9.70;99.90
21666;DHT22;10994;45.486;9.190;2022-12-31T00:50:51;9.70;99.90
21666;DHT22;10994;45.486;9.190;2022-12-31T00:53:17;9.70;99.90
21666;DHT22;10994;45.486;9.190;2022-12-31T00:55:42;9.70;99.90
21666;DHT22;10994;45.486;9.190;2022-12-31T00:58:08;9.70;99.90
21666;DHT22;10994;45.486;9.190;2022-12-31T01:00:35;9.60;99.90
21666;DHT22;10994;45.486;9.190;2022-12-31T01:03:01;9.60;99.90
21666;DHT22;10994;45.486;9.190;2022-12-31T01:05:30;9.60;99.90
21666;DHT22;10994;45.486;9.190;2022-12-31T01:07:56;9.70;99.90
21666;DHT22;10994;45.486;9.190;2022-12-31T01:10:21;9.60;99.90
21666;DHT22;10994;45.486;9.190;2022-12-31T01:13:05;9.60;99.90
21666;DHT22;10994;45.486;9.190;2022-12-31T01:15:33;9.60;99.90
21666;DHT22;10994;45.486;9.190;2022-12-31T01:18:00;9.50;99.90
21666;DHT22;10994;45.486;9.190;2022-12-31T01:20:26;9.70;99.90
21666;DHT22;10994;45.486;9.190;2022-12-31T01:22:51;9.70;99.90
21666;DHT22;10994;45.486;9.190;2022-12-31T01:25:17;9.60;99.90
21666;DHT22;10994;45.486;9.190;2022-12-31T01:27:43;9.50;99.90
21666;DHT22;10994;45.486;9.190;2022-12-31T01:30:09;9.60;99.90
21666;DHT22;10994;45.486;9.190;2022-12-31T01:32:34;9.50;99.90
21666;DHT22;10994;45.486;9.190;2022-12-31T01:35:00;9.50;99.90
21666;DHT22;10994;45.486;9.190;2022-12-31T01:37:26;9.50;99.90
21666;DHT22;10994;45.486;9.190;2022-12-31T01:39:52;9.50;99.90
21666;DHT22;10994;45.486;9.190;2022-12-31T01:42:18;9.50;99.90
21666;DHT22;10994;45.486;9.190;2022-12-31T01:44:50;9.50;99.90
21666;DHT22;10994;45.486;9.190;2022-12-31T01:47:20;9.50;99.90
21666;DHT22;10994;45.486;9.190;2022-12-31T01:49:53;9.50;99.90
21666;DHT22;10994;45.486;9.190;2022-12-31T01:52:30;9.50;99.90
21666;DHT22;10994;45.486;9.190;2022-12-31T01:55:06;9.50;99.90
21666;DHT22;10994;45.486;9.190;2022-12-31T01:57:34;9.50;99.90
21666;DHT22;10994;45.486;9.190;2022-12-31T02:00:01;9.50;99.90
21666;DHT22;10994;45.486;9.190;2022-12-31T02:02:27;9.50;99.90
21666;DHT22;10994;45.486;9.190;2022-12-31T02:04:54;9.50;99.90
21666;DHT22;10994;45.486;9.190;2022-12-31T02:07:22;9.50;99.90
21666;DHT22;10994;45.486;9.190;2022-12-31T02:09:48;9.50;99.90
21666;DHT22;10994;45.486;9.190;2022-12-31T02:12:13;9.50;99.90
21666;DHT22;10994;45.486;9.190;2022-12-31T02:14:41;9.50;99.90
21666;DHT22;10994;45.486;9.190;2022-12-31T02:17:45;9.60;99.90
21666;DHT22;10994;45.486;9.190;2022-12-31T02:23:41;9.40;99.90
21666;DHT22;10994;45.486;9.190;2022-12-31T02:26:45;9.40;99.90
21666;DHT22;10994;45.486;9.190;2022-12-31T02:32:14;9.50;99.90
21666;DHT22;10994;45.486;9.190;2022-12-31T02:34:47;9.50;99.90
21666;DHT22;10994;45.486;9.190;2022-12-31T02:37:16;9.40;99.90
21666;DHT22;10994;45.486;9.190;2022-12-31T02:39:44;9.40;99.90
21666;DHT22;10994;45.486;9.190;2022-12-31T02:42:11;9.30;99.90
21666;DHT22;10994;45.486;9.190;2022-12-31T02:44:39;9.30;99.90
21666;DHT22;10994;45.486;9.190;2022-12-31T02:52:30;9.20;99.90
21666;DHT22;10994;45.486;9.190;2022-12-31T02:55:30;9.20;99.90
21666;DHT22;10994;45.486;9.190;2022-12-31T02:58:13;9.30;99.90
21666;DHT22;10994;45.486;9.190;2022-12-31T03:00:45;9.20;99.90
21666;DHT22;10994;45.486;9.190;2022-12-31T03:03:31;9.40;99.90
21666;DHT22;10994;45.486;9.190;2022-12-31T03:06:01;9.40;99.90
21666;DHT22;10994;45.486;9.190;2022-12-31T03:08:27;9.40;99.90
21666;DHT22;10994;45.486;9.190;2022-12-31T03:10:53;9.50;99.90
21666;DHT22;10994;45.486;9.190;2022-12-31T03:13:22;9.60;99.90
21666;DHT22;10994;45.486;9.190;2022-12-31T03:15:48;9.70;99.90
21666;DHT22;10994;45.486;9.190;2022-12-31T03:18:18;9.70;99.90
21666;DHT22;10994;45.486;9.190;2022-12-31T03:21:11;9.60;99.90
21666;DHT22;10994;45.486;9.190;2022-12-31T03:23:55;9.60;99.90
21666;DHT22;10994;45.486;9.190;2022-12-31T03:26:40;9.60;99.90
21666;DHT22;10994;45.486;9.190;2022-12-31T03:29:05;9.60;99.90
21666;DHT22;10994;45.486;9.190;2022-12-31T03:31:31;9.60;99.90
21666;DHT22;10994;45.486;9.190;2022-12-31T03:33:57;9.50;99.90
21666;DHT22;10994;45.486;9.190;2022-12-31T03:36:22;9.60;99.90
21666;DHT22;10994;45.486;9.190;2022-12-31T03:38:48;9.60;99.90
21666;DHT22;10994;45.486;9.190;2022-12-31T03:41:13;9.40;99.90
21666;DHT22;10994;45.486;9.190;2022-12-31T03:43:39;9.40;99.90
21666;DHT22;10994;45.486;9.190;2022-12-31T03:46:05;9.30;99.90
21666;DHT22;10994;45.486;9.190;2022-12-31T03:48:30;9.40;99.90
21666;DHT22;10994;45.486;9.190;2022-12-31T03:50:56;9.50;99.90
21666;DHT22;10994;45.486;9.190;2022-12-31T03:53:22;9.60;99.90
21666;DHT22;10994;45.486;9.190;2022-12-31T03:55:52;9.50;99.90
21666;DHT22;10994;45.486;9.190;2022-12-31T03:58:17;9.60;99.90
21666;DHT22;10994;45.486;9.190;2022-12-31T04:00:43;9.70;99.90
21666;DHT22;10994;45.486;9.190;2022-12-31T04:03:09;9.60;99.90
21666;DHT22;10994;45.486;9.190;2022-12-31T04:05:34;9.70;99.90
21666;DHT22;10994;45.486;9.190;2022-12-31T04:08:00;9.70;99.90
21666;DHT22;10994;45.486;9.190;2022-12-31T04:10:27;9.70;99.90
21666;DHT22;10994;45.486;9.190;2022-12-31T04:12:53;9.60;99.90
21666;DHT22;10994;45.486;9.190;2022-12-31T04:15:19;9.50;99.90
21666;DHT22;10994;45.486;9.190;2022-12-31T04:17:46;9.50;99.90
21666;DHT22;10994;45.486;9.190;2022-12-31T04:20:12;9.50;99.90
21666;DHT22;10994;45.486;9.190;2022-12-31T04:22:38;9.50;99.90
21666;DHT22;10994;45.486;9.190;2022-12-31T04:25:05;9.50;99.90
21666;DHT22;10994;45.486;9.190;2022-12-31T04:27:37;9.50;99.90
21666;DHT22;10994;45.486;9.190;2022-12-31T04:30:02;9.50;99.90
21666;DHT22;10994;45.486;9.190;2022-12-31T04:32:28;9.40;99.90
21666;DHT22;10994;45.486;9.190;2022-12-31T04:34:54;9.40;99.90
21666;DHT22;10994;45.486;9.190;2022-12-31T04:37:20;9.40;99.90
21666;DHT22;10994;45.486;9.190;2022-12-31T04:39:45;9.40;99.90
21666;DHT22;10994;45.486;9.190;2022-12-31T04:42:11;9.40;99.90
21666;DHT22;10994;45.486;9.190;2022-12-31T04:44:37;9.40;99.90
21666;DHT22;10994;45.486;9.190;2022-12-31T04:47:04;9.50;99.90
21666;DHT22;10994;45.486;9.190;2022-12-31T04:49:33;9.50;99.90
21666;DHT22;10994;45.486;9.190;2022-12-31T04:51:58;9.40;99.90
21666;DHT22;10994;45.486;9.190;2022-12-31T04:54:24;9.20;99.90
21666;DHT22;10994;45.486;9.190;2022-12-31T04:56:50;9.20;99.90
21666;DHT22;10994;45.486;9.190;2022-12-31T04:59:15;9.20;99.90
21666;DHT22;10994;45.486;9.190;2022-12-31T05:01:41;9.10;99.90
21666;DHT22;10994;45.486;9.190;2022-12-31T05:04:08;9.20;99.90
21666;DHT22;10994;45.486;9.190;2022-12-31T05:06:34;9.20;99.90
21666;DHT22;10994;45.486;9.190;2022-12-31T05:09:01;9.30;99.90
21666;DHT22;10994;45.486;9.190;2022-12-31T05:11:30;9.20;99.90
21666;DHT22;10994;45.486;9.190;2022-12-31T05:13:56;9.10;99.90
21666;DHT22;10994;45.486;9.190;2022-12-31T05:16:22;9.10;99.90
21666;DHT22;10994;45.486;9.190;2022-12-31T05:18:48;9.10;99.90
21666;DHT22;10994;45.486;9.190;2022-12-31T05:21:18;9.10;99.90
21666;DHT22;10994;45.486;9.190;2022-12-31T05:23:44;9.20;99.90
21666;DHT22;10994;45.486;9.190;2022-12-31T05:26:10;9.30;99.90
21666;DHT22;10994;45.486;9.190;2022-12-31T05:28:36;9.20;99.90
21666;DHT22;10994;45.486;9.190;2022-12-31T05:31:01;9.20;99.90
21666;DHT22;10994;45.486;9.190;2022-12-31T05:33:28;9.20;99.90
21666;DHT22;10994;45.486;9.190;2022-12-31T05:35:57;9.20;99.90
21666;DHT22;10994;45.486;9.190;2022-12-31T05:38:24;9.20;99.90
21666;DHT22;10994;45.486;9.190;2022-12-31T05:40:58;9.20;99.90
21666;DHT22;10994;45.486;9.190;2022-12-31T05:43:24;9.00;99.90
21666;DHT22;10994;45.486;9.190;2022-12-31T05:45:50;9.10;99.90
21666;DHT22;10994;45.486;9.190;2022-12-31T05:48:16;9.00;99.90
21666;DHT22;10994;45.486;9.190;2022-12-31T05:50:42;9.00;99.90
21666;DHT22;10994;45.486;9.190;2022-12-31T05:53:08;9.00;99.90
21666;DHT22;10994;45.486;9.190;2022-12-31T05:55:34;9.10;99.90
21666;DHT22;10994;45.486;9.190;2022-12-31T05:57:59;9.10;99.90
21666;DHT22;10994;45.486;9.190;2022-12-31T06:00:25;9.10;99.90
21666;DHT22;10994;45.486;9.190;2022-12-31T06:02:51;9.10;99.90
21666;DHT22;10994;45.486;9.190;2022-12-31T06:05:16;9.00;99.90
21666;DHT22;10994;45.486;9.190;2022-12-31T06:07:42;9.00;99.90
21666;DHT22;10994;45.486;9.190;2022-12-31T06:10:09;9.10;99.90
21666;DHT22;10994;45.486;9.190;2022-12-31T06:12:39;9.00;99.90
21666;DHT22;10994;45.486;9.190;2022-12-31T06:15:05;9.00;99.90
21666;DHT22;10994;45.486;9.190;2022-12-31T06:17:31;9.00;99.90
21666;DHT22;10994;45.486;9.190;2022-12-31T06:19:58;9.00;99.90
21666;DHT22;10994;45.486;9.190;2022-12-31T06:22:24;9.00;99.90
21666;DHT22;10994;45.486;9.190;2022-12-31T06:24:50;8.90;99.90
21666;DHT22;10994;45.486;9.190;2022-12-31T06:27:16;9.00;99.90
21666;DHT22;10994;45.486;9.190;2022-12-31T06:29:42;9.00;99.90
21666;DHT22;10994;45.486;9.190;2022-12-31T06:32:09;9.00;99.90
21666;DHT22;10994;45.486;9.190;2022-12-31T06:34:34;8.90;99.90
21666;DHT22;10994;45.486;9.190;2022-12-31T06:37:00;8.90;99.90
21666;DHT22;10994;45.486;9.190;2022-12-31T06:39:25;8.90;99.90
21666;DHT22;10994;45.486;9.190;2022-12-31T06:41:51;8.90;99.90
21666;DHT22;10994;45.486;9.190;2022-12-31T06:44:17;8.80;99.90
21666;DHT22;10994;45.486;9.190;2022-12-31T06:46:43;8.80;99.90
21666;DHT22;10994;45.486;9.190;2022-12-31T06:49:09;8.70;99.90
21666;DHT22;10994;45.486;9.190;2022-12-31T06:51:35;8.70;99.90
21666;DHT22;10994;45.486;9.190;2022-12-31T06:54:01;8.70;99.90
21666;DHT22;10994;45.486;9.190;2022-12-31T06:56:27;8.70;99.90
21666;DHT22;10994;45.486;9.190;2022-12-31T06:58:54;8.70;99.90
21666;DHT22;10994;45.486;9.190;2022-12-31T07:04:59;9.00;99.90
21666;DHT22;10994;45.486;9.190;2022-12-31T07:07:33;9.00;99.90
21666;DHT22;10994;45.486;9.190;2022-12-31T07:12:54;9.10;99.90
21666;DHT22;10994;45.486;9.190;2022-12-31T07:15:43;9.10;99.90
21666;DHT22;10994;45.486;9.190;2022-12-31T07:20:45;8.90;99.90
21666;DHT22;10994;45.486;9.190;2022-12-31T07:23:11;8.90;99.90
21666;DHT22;10994;45.486;9.190;2022-12-31T07:25:40;9.00;99.90
21666;DHT22;10994;45.486;9.190;2022-12-31T07:31:21;9.00;99.90
21666;DHT22;10994;45.486;9.190;2022-12-31T07:33:57;9.10;99.90
21666;DHT22;10994;45.486;9.190;2022-12-31T07:39:33;9.20;99.90
21666;DHT22;10994;45.486;9.190;2022-12-31T07:42:15;9.20;99.90
21666;DHT22;10994;45.486;9.190;2022-12-31T07:44:59;9.20;99.90
21666;DHT22;10994;45.486;9.190;2022-12-31T07:47:26;9.20;99.90
21666;DHT22;10994;45.486;9.190;2022-12-31T07:49:54;9.20;99.90
21666;DHT22;10994;45.486;9.190;2022-12-31T07:52:20;9.10;99.90
21666;DHT22;10994;45.486;9.190;2022-12-31T07:54:46;9.20;99.90
21666;DHT22;10994;45.486;9.190;2022-12-31T07:57:16;9.20;99.90
21666;DHT22;10994;45.486;9.190;2022-12-31T08:05:51;9.20;99.90
21666;DHT22;10994;45.486;9.190;2022-12-31T08:08:35;9.10;99.90
21666;DHT22;10994;45.486;9.190;2022-12-31T08:11:27;9.10;99.90
21666;DHT22;10994;45.486;9.190;2022-12-31T08:13:54;9.30;99.90
21666;DHT22;10994;45.486;9.190;2022-12-31T08:16:21;9.30;99.90
21666;DHT22;10994;45.486;9.190;2022-12-31T08:18:47;9.30;99.90
21666;DHT22;10994;45.486;9.190;2022-12-31T08:21:42;9.30;99.90
21666;DHT22;10994;45.486;9.190;2022-12-31T08:24:48;9.30;99.90
21666;DHT22;10994;45.486;9.190;2022-12-31T08:30:18;9.30;99.90
21666;DHT22;10994;45.486;9.190;2022-12-31T08:38:56;9.40;99.90
21666;DHT22;10994;45.486;9.190;2022-12-31T08:41:43;9.40;99.90
21666;DHT22;10994;45.486;9.190;2022-12-31T08:44:33;9.50;99.90
21666;DHT22;10994;45.486;9.190;2022-12-31T08:49:44;9.50;99.90
21666;DHT22;10994;45.486;9.190;2022-12-31T08:52:22;9.50;99.90
21666;DHT22;10994;45.486;9.190;2022-12-31T08:54:48;9.50;99.90
21666;DHT22;10994;45.486;9.190;2022-12-31T09:10:33;9.60;99.90
21666;DHT22;10994;45.486;9.190;2022-12-31T09:13:29;9.60;99.90
21666;DHT22;10994;45.486;9.190;2022-12-31T09:18:25;9.70;99.90
21666;DHT22;10994;45.486;9.190;2022-12-31T09:20:51;9.70;99.90
21666;DHT22;10994;45.486;9.190;2022-12-31T09:23:17;9.80;99.90
21666;DHT22;10994;45.486;9.190;2022-12-31T09:25:58;9.70;99.90
21666;DHT22;10994;45.486;9.190;2022-12-31T09:31:34;9.80;99.90
21666;DHT22;10994;45.486;9.190;2022-12-31T09:37:00;9.80;99.90
21666;DHT22;10994;45.486;9.190;2022-12-31T09:39:37;9.80;99.90
21666;DHT22;10994;45.486;9.190;2022-12-31T09:51:16;9.90;99.90
21666;DHT22;10994;45.486;9.190;2022-12-31T09:54:32;9.90;99.90
21666;DHT22;10994;45.486;9.190;2022-12-31T09:56:35;10.00;99.90
21666;DHT22;10994;45.486;9.190;2022-12-31T09:59:12;9.90;99.90
21666;DHT22;10994;45.486;9.190;2022-12-31T10:02:09;9.90;99.90
21666;DHT22;10994;45.486;9.190;2022-12-31T10:04:59;10.00;99.90
21666;DHT22;10994;45.486;9.190;2022-12-31T10:10:24;10.20;99.90
21666;DHT22;10994;45.486;9.190;2022-12-31T10:13:05;10.20;99.90
21666;DHT22;10994;45.486;9.190;2022-12-31T10:16:12;10.20;99.90
21666;DHT22;10994;45.486;9.190;2022-12-31T10:24:28;10.10;99.90
21666;DHT22;10994;45.486;9.190;2022-12-31T10:30:00;10.20;99.90
21666;DHT22;10994;45.486;9.190;2022-12-31T10:32:41;10.20;99.90
21666;DHT22;10994;45.486;9.190;2022-12-31T10:35:52;10.20;99.90
21666;DHT22;10994;45.486;9.190;2022-12-31T10:44:40;10.10;99.90
21666;DHT22;10994;45.486;9.190;2022-12-31T10:47:52;10.10;99.90
21666;DHT22;10994;45.486;9.190;2022-12-31T10:51:05;10.10;99.90
21666;DHT22;10994;45.486;9.190;2022-12-31T11:08:17;10.40;99.90
21666;DHT22;10994;45.486;9.190;2022-12-31T11:16:38;10.50;99.90
21666;DHT22;10994;45.486;9.190;2022-12-31T11:28:13;10.60;99.90
21666;DHT22;10994;45.486;9.190;2022-12-31T11:31:10;10.60;99.90
21666;DHT22;10994;45.486;9.190;2022-12-31T11:39:37;10.70;99.90
21666;DHT22;10994;45.486;9.190;2022-12-31T11:53:24;10.60;99.90
21666;DHT22;10994;45.486;9.190;2022-12-31T11:58:42;10.70;99.90
21666;DHT22;10994;45.486;9.190;2022-12-31T12:01:10;10.70;99.90
21666;DHT22;10994;45.486;9.190;2022-12-31T12:03:38;10.60;99.90
21666;DHT22;10994;45.486;9.190;2022-12-31T12:06:16;10.60;99.90
21666;DHT22;10994;45.486;9.190;2022-12-31T12:08:43;10.60;99.90
21666;DHT22;10994;45.486;9.190;2022-12-31T12:11:22;10.70;99.90
21666;DHT22;10994;45.486;9.190;2022-12-31T12:13:48;10.70;99.90
21666;DHT22;10994;45.486;9.190;2022-12-31T12:16:14;10.70;99.90
21666;DHT22;10994;45.486;9.190;2022-12-31T12:19:01;10.80;99.90
21666;DHT22;10994;45.486;9.190;2022-12-31T12:21:27;10.90;99.90
21666;DHT22;10994;45.486;9.190;2022-12-31T12:26:29;11.00;99.90
21666;DHT22;10994;45.486;9.190;2022-12-31T12:28:59;11.00;99.90
21666;DHT22;10994;45.486;9.190;2022-12-31T12:31:32;10.90;99.90
21666;DHT22;10994;45.486;9.190;2022-12-31T12:33:58;10.90;99.90
21666;DHT22;10994;45.486;9.190;2022-12-31T12:36:24;10.90;99.90
21666;DHT22;10994;45.486;9.190;2022-12-31T12:39:00;10.90;99.90
21666;DHT22;10994;45.486;9.190;2022-12-31T12:41:26;11.00;99.90
21666;DHT22;10994;45.486;9.190;2022-12-31T12:44:13;10.90;99.90
21666;DHT22;10994;45.486;9.190;2022-12-31T12:46:45;10.90;99.90
21666;DHT22;10994;45.486;9.190;2022-12-31T12:49:23;10.90;99.90
21666;DHT22;10994;45.486;9.190;2022-12-31T12:57:33;11.00;99.90
21666;DHT22;10994;45.486;9.190;2022-12-31T13:18:45;11.00;99.90
21666;DHT22;10994;45.486;9.190;2022-12-31T13:21:29;10.90;99.90
21666;DHT22;10994;45.486;9.190;2022-12-31T13:24:21;11.00;99.90
21666;DHT22;10994;45.486;9.190;2022-12-31T13:26:44;11.10;99.90
21666;DHT22;10994;45.486;9.190;2022-12-31T13:29:17;11.20;99.90
21666;DHT22;10994;45.486;9.190;2022-12-31T13:31:45;11.20;99.90
21666;DHT22;10994;45.486;9.190;2022-12-31T13:34:20;11.20;99.90
21666;DHT22;10994;45.486;9.190;2022-12-31T13:36:47;11.20;99.90
21666;DHT22;10994;45.486;9.190;2022-12-31T13:39:19;11.10;99.90
21666;DHT22;10994;45.486;9.190;2022-12-31T13:44:36;11.20;99.90
21666;DHT22;10994;45.486;9.190;2022-12-31T13:47:30;11.30;99.90
21666;DHT22;10994;45.486;9.190;2022-12-31T13:50:12;11.20;99.90
21666;DHT22;10994;45.486;9.190;2022-12-31T13:52:44;11.30;99.90
21666;DHT22;10994;45.486;9.190;2022-12-31T13:57:48;11.20;99.90
21666;DHT22;10994;45.486;9.190;2022-12-31T14:00:19;11.10;99.90
21666;DHT22;10994;45.486;9.190;2022-12-31T14:03:07;11.10;99.90
21666;DHT22;10994;45.486;9.190;2022-12-31T14:08:03;11.10;99.90
21666;DHT22;10994;45.486;9.190;2022-12-31T14:13:30;11.20;99.90
21666;DHT22;10994;45.486;9.190;2022-12-31T14:16:19;11.00;99.90
21666;DHT22;10994;45.486;9.190;2022-12-31T14:24:30;11.00;99.90
21666;DHT22;10994;45.486;9.190;2022-12-31T14:27:03;11.10;99.90
21666;DHT22;10994;45.486;9.190;2022-12-31T14:30:02;11.10;99.90
21666;DHT22;10994;45.486;9.190;2022-12-31T14:32:56;11.10;99.90
21666;DHT22;10994;45.486;9.190;2022-12-31T14:41:11;11.00;99.90
21666;DHT22;10994;45.486;9.190;2022-12-31T14:43:49;10.90;99.90
21666;DHT22;10994;45.486;9.190;2022-12-31T14:46:38;10.90;99.90
21666;DHT22;10994;45.486;9.190;2022-12-31T14:49:32;10.90;99.90
21666;DHT22;10994;45.486;9.190;2022-12-31T14:54:41;11.00;99.90
21666;DHT22;10994;45.486;9.190;2022-12-31T14:59:53;10.80;99.90
21666;DHT22;10994;45.486;9.190;2022-12-31T15:02:29;10.70;99.90
21666;DHT22;10994;45.486;9.190;2022-12-31T15:05:15;10.70;99.90
21666;DHT22;10994;45.486;9.190;2022-12-31T15:10:25;10.90;99.90
21666;DHT22;10994;45.486;9.190;2022-12-31T15:13:13;11.00;99.90
21666;DHT22;10994;45.486;9.190;2022-12-31T15:21:39;11.10;99.90
21666;DHT22;10994;45.486;9.190;2022-12-31T15:24:18;11.20;99.90
21666;DHT22;10994;45.486;9.190;2022-12-31T15:26:55;11.20;99.90
21666;DHT22;10994;45.486;9.190;2022-12-31T15:29:30;11.10;99.90
21666;DHT22;10994;45.486;9.190;2022-12-31T15:31:58;11.10;99.90
21666;DHT22;10994;45.486;9.190;2022-12-31T15:34:30;11.10;99.90
21666;DHT22;10994;45.486;9.190;2022-12-31T15:37:04;11.20;99.90
21666;DHT22;10994;45.486;9.190;2022-12-31T15:41:57;11.20;99.90
21666;DHT22;10994;45.486;9.190;2022-12-31T15:47:47;11.20;99.90
21666;DHT22;10994;45.486;9.190;2022-12-31T15:50:20;11.20;99.90
21666;DHT22;10994;45.486;9.190;2022-12-31T15:52:55;11.30;99.90
21666;DHT22;10994;45.486;9.190;2022-12-31T15:58:17;11.20;99.90
21666;DHT22;10994;45.486;9.190;2022-12-31T16:03:42;11.20;99.90
21666;DHT22;10994;45.486;9.190;2022-12-31T16:06:13;11.10;99.90
21666;DHT22;10994;45.486;9.190;2022-12-31T16:08:43;11.00;99.90
21666;DHT22;10994;45.486;9.190;2022-12-31T16:11:10;11.00;99.90
21666;DHT22;10994;45.486;9.190;2022-12-31T16:13:40;11.10;99.90
21666;DHT22;10994;45.486;9.190;2022-12-31T16:16:17;11.00;99.90
21666;DHT22;10994;45.486;9.190;2022-12-31T16:18:43;11.10;99.90
21666;DHT22;10994;45.486;9.190;2022-12-31T16:21:33;11.10;99.90
21666;DHT22;10994;45.486;9.190;2022-12-31T16:24:51;11.10;99.90
21666;DHT22;10994;45.486;9.190;2022-12-31T16:26:52;11.10;99.90
21666;DHT22;10994;45.486;9.190;2022-12-31T16:29:21;11.10;99.90
21666;DHT22;10994;45.486;9.190;2022-12-31T16:31:49;11.00;99.90
21666;DHT22;10994;45.486;9.190;2022-12-31T16:34:22;11.00;99.90
21666;DHT22;10994;45.486;9.190;2022-12-31T16:37:03;11.00;99.90
21666;DHT22;10994;45.486;9.190;2022-12-31T16:39:34;11.10;99.90
21666;DHT22;10994;45.486;9.190;2022-12-31T16:44:38;11.00;99.90
21666;DHT22;10994;45.486;9.190;2022-12-31T16:47:05;11.00;99.90
21666;DHT22;10994;45.486;9.190;2022-12-31T16:49:34;11.00;99.90
21666;DHT22;10994;45.486;9.190;2022-12-31T16:52:04;11.00;99.90
21666;DHT22;10994;45.486;9.190;2022-12-31T16:54:37;11.00;99.90
21666;DHT22;10994;45.486;9.190;2022-12-31T16:57:04;10.90;99.90
21666;DHT22;10994;45.486;9.190;2022-12-31T16:59:38;10.90;99.90
21666;DHT22;10994;45.486;9.190;2022-12-31T17:02:14;10.90;99.90
21666;DHT22;10994;45.486;9.190;2022-12-31T17:04:46;10.90;99.90
21666;DHT22;10994;45.486;9.190;2022-12-31T17:07:38;10.70;99.90
21666;DHT22;10994;45.486;9.190;2022-12-31T17:12:42;10.50;99.90
21666;DHT22;10994;45.486;9.190;2022-12-31T17:15:18;10.50;99.90
21666;DHT22;10994;45.486;9.190;2022-12-31T17:17:50;10.50;99.90
21666;DHT22;10994;45.486;9.190;2022-12-31T17:20:26;10.50;99.90
21666;DHT22;10994;45.486;9.190;2022-12-31T17:22:57;10.40;99.90
21666;DHT22;10994;45.486;9.190;2022-12-31T17:25:29;10.30;99.90
21666;DHT22;10994;45.486;9.190;2022-12-31T17:28:18;10.30;99.90
21666;DHT22;10994;45.486;9.190;2022-12-31T17:30:45;10.40;99.90
21666;DHT22;10994;45.486;9.190;2022-12-31T17:35:40;10.30;99.90
21666;DHT22;10994;45.486;9.190;2022-12-31T17:41:01;10.10;99.90
21666;DHT22;10994;45.486;9.190;2022-12-31T17:43:34;10.20;99.90
21666;DHT22;10994;45.486;9.190;2022-12-31T17:46:01;10.20;99.90
21666;DHT22;10994;45.486;9.190;2022-12-31T17:48:27;10.10;99.90
21666;DHT22;10994;45.486;9.190;2022-12-31T17:50:59;10.10;99.90
21666;DHT22;10994;45.486;9.190;2022-12-31T17:53:25;10.10;99.90
21666;DHT22;10994;45.486;9.190;2022-12-31T17:55:52;10.10;99.90
21666;DHT22;10994;45.486;9.190;2022-12-31T17:58:42;10.10;99.90
21666;DHT22;10994;45.486;9.190;2022-12-31T18:01:10;10.00;99.90
21666;DHT22;10994;45.486;9.190;2022-12-31T18:03:37;9.90;99.90
21666;DHT22;10994;45.486;9.190;2022-12-31T18:06:03;9.80;99.90
21666;DHT22;10994;45.486;9.190;2022-12-31T18:08:29;9.80;99.90
21666;DHT22;10994;45.486;9.190;2022-12-31T18:10:55;9.80;99.90
21666;DHT22;10994;45.486;9.190;2022-12-31T18:13:23;9.70;99.90
21666;DHT22;10994;45.486;9.190;2022-12-31T18:15:50;9.70;99.90
21666;DHT22;10994;45.486;9.190;2022-12-31T18:18:22;9.80;99.90
21666;DHT22;10994;45.486;9.190;2022-12-31T18:20:51;9.90;99.90
21666;DHT22;10994;45.486;9.190;2022-12-31T18:23:20;9.90;99.90
21666;DHT22;10994;45.486;9.190;2022-12-31T18:25:47;9.90;99.90
21666;DHT22;10994;45.486;9.190;2022-12-31T18:28:12;9.90;99.90
21666;DHT22;10994;45.486;9.190;2022-12-31T18:30:38;9.90;99.90
21666;DHT22;10994;45.486;9.190;2022-12-31T18:33:05;9.90;99.90
21666;DHT22;10994;45.486;9.190;2022-12-31T18:35:31;10.00;99.90
21666;DHT22;10994;45.486;9.190;2022-12-31T18:37:57;10.00;99.90
21666;DHT22;10994;45.486;9.190;2022-12-31T18:40:23;10.00;99.90
21666;DHT22;10994;45.486;9.190;2022-12-31T18:42:49;10.10;99.90
21666;DHT22;10994;45.486;9.190;2022-12-31T18:45:17;10.10;99.90
21666;DHT22;10994;45.486;9.190;2022-12-31T18:47:43;10.10;99.90
21666;DHT22;10994;45.486;9.190;2022-12-31T18:50:14;10.10;99.90
21666;DHT22;10994;45.486;9.190;2022-12-31T18:52:40;10.20;99.90
21666;DHT22;10994;45.486;9.190;2022-12-31T18:55:24;10.10;99.90
21666;DHT22;10994;45.486;9.190;2022-12-31T18:57:50;10.00;99.90
21666;DHT22;10994;45.486;9.190;2022-12-31T19:00:15;9.90;99.90
21666;DHT22;10994;45.486;9.190;2022-12-31T19:02:41;9.90;99.90
21666;DHT22;10994;45.486;9.190;2022-12-31T19:05:21;9.90;99.90
21666;DHT22;10994;45.486;9.190;2022-12-31T19:07:47;9.90;99.90
21666;DHT22;10994;45.486;9.190;2022-12-31T19:10:13;9.80;99.90
21666;DHT22;10994;45.486;9.190;2022-12-31T19:12:39;9.80;99.90
21666;DHT22;10994;45.486;9.190;2022-12-31T19:17:45;9.90;99.90
21666;DHT22;10994;45.486;9.190;2022-12-31T19:20:11;9.90;99.90
21666;DHT22;10994;45.486;9.190;2022-12-31T19:22:39;9.90;99.90
21666;DHT22;10994;45.486;9.190;2022-12-31T19:25:26;9.90;99.90
21666;DHT22;10994;45.486;9.190;2022-12-31T19:27:52;10.00;99.90
21666;DHT22;10994;45.486;9.190;2022-12-31T19:30:22;10.00;99.90
21666;DHT22;10994;45.486;9.190;2022-12-31T19:32:51;10.00;99.90
21666;DHT22;10994;45.486;9.190;2022-12-31T19:35:18;10.00;99.90
21666;DHT22;10994;45.486;9.190;2022-12-31T19:37:46;10.10;99.90
21666;DHT22;10994;45.486;9.190;2022-12-31T19:40:14;10.20;99.90
21666;DHT22;10994;45.486;9.190;2022-12-31T19:42:41;10.20;99.90
21666;DHT22;10994;45.486;9.190;2022-12-31T19:45:15;10.20;99.90
21666;DHT22;10994;45.486;9.190;2022-12-31T19:47:42;10.30;99.90
21666;DHT22;10994;45.486;9.190;2022-12-31T19:50:14;10.30;99.90
21666;DHT22;10994;45.486;9.190;2022-12-31T19:52:40;10.30;99.90
21666;DHT22;10994;45.486;9.190;2022-12-31T19:55:08;10.20;99.90
21666;DHT22;10994;45.486;9.190;2022-12-31T19:57:36;10.30;99.90